createdAt,value
2019-01-19T00:00:34.302Z,8.50
2019-01-19T00:01:34.261Z,8.40
2019-01-19T00:02:34.246Z,8.70
2019-01-19T00:03:34.238Z,8.10
2019-01-19T00:04:34.260Z,8.30
2019-01-19T00:05:34.216Z,7.90
2019-01-19T00:06:34.437Z,8.20
2019-01-19T00:07:34.191Z,8.70
2019-01-19T00:08:34.192Z,7.90
2019-01-19T00:09:34.175Z,8.10
2019-01-19T00:10:34.162Z,8.20
2019-01-19T00:11:34.149Z,8.20
2019-01-19T00:12:34.178Z,8.50
2019-01-19T00:13:34.126Z,8.20
2019-01-19T00:14:34.112Z,8.60
2019-01-19T00:15:34.098Z,8.10
2019-01-19T00:16:34.086Z,8.40
2019-01-19T00:17:34.892Z,8.40
2019-01-19T00:18:34.102Z,8.10
2019-01-19T00:19:35.060Z,8.10
2019-01-19T00:20:34.047Z,8.30
2019-01-19T00:21:34.038Z,8.70
2019-01-19T00:22:34.029Z,8.10
2019-01-19T00:23:34.009Z,8.50
2019-01-19T00:24:34.048Z,8.00
2019-01-19T00:25:33.987Z,8.20
2019-01-19T00:26:33.976Z,8.50
2019-01-19T00:27:33.969Z,8.40
2019-01-19T00:28:33.954Z,8.20
2019-01-19T00:29:33.941Z,8.40
2019-01-19T00:30:33.959Z,8.80
2019-01-19T00:31:33.921Z,7.70
2019-01-19T00:32:33.917Z,8.10
2019-01-19T00:33:33.899Z,8.10
2019-01-19T00:34:34.892Z,8.10
2019-01-19T00:35:33.876Z,8.50
2019-01-19T00:36:33.947Z,8.50
2019-01-19T00:37:33.854Z,8.30
2019-01-19T00:38:33.846Z,8.30
2019-01-19T00:39:33.834Z,8.70
2019-01-19T00:40:34.402Z,8.30
2019-01-19T00:41:37.918Z,8.30
2019-01-19T00:42:33.797Z,8.00
2019-01-19T00:43:33.786Z,8.30
2019-01-19T00:44:33.776Z,8.40
2019-01-19T00:45:33.762Z,8.00
2019-01-19T00:46:33.753Z,8.00
2019-01-19T00:47:33.778Z,7.90
2019-01-19T00:48:33.731Z,8.30
2019-01-19T00:49:33.718Z,7.70
2019-01-19T00:50:33.710Z,8.40
2019-01-19T00:51:33.695Z,8.00
2019-01-19T00:52:33.684Z,8.30
2019-01-19T00:53:33.709Z,8.10
2019-01-19T00:54:33.667Z,8.20
2019-01-19T00:55:33.657Z,8.00
2019-01-19T00:56:33.661Z,7.90
2019-01-19T00:57:33.629Z,8.00
2019-01-19T00:58:33.621Z,7.50
2019-01-19T00:59:33.638Z,8.20
2019-01-19T01:00:33.600Z,8.20
2019-01-19T01:01:33.585Z,8.10
2019-01-19T01:02:33.576Z,8.10
2019-01-19T01:03:33.563Z,8.10
2019-01-19T01:04:33.554Z,8.30
2019-01-19T01:05:33.559Z,8.30
2019-01-19T01:06:33.531Z,8.00
2019-01-19T01:07:33.523Z,8.60
2019-01-19T01:08:33.511Z,7.60
2019-01-19T01:09:33.525Z,8.30
2019-01-19T01:10:33.484Z,8.70
2019-01-19T01:11:33.519Z,8.50
2019-01-19T01:12:33.461Z,8.70
2019-01-19T01:13:33.450Z,7.90
2019-01-19T01:14:33.438Z,7.80
2019-01-19T01:15:33.444Z,8.30
2019-01-19T01:16:33.416Z,7.90
2019-01-19T01:17:33.408Z,8.30
2019-01-19T01:18:33.400Z,8.40
2019-01-19T01:19:33.413Z,8.30
2019-01-19T01:20:33.372Z,8.70
2019-01-19T01:21:33.362Z,8.50
2019-01-19T01:22:33.353Z,8.40
2019-01-19T01:23:33.338Z,8.00
2019-01-19T01:24:33.332Z,7.90
2019-01-19T01:25:33.336Z,8.50
2019-01-19T01:26:33.308Z,8.70
2019-01-19T01:27:33.293Z,8.20
2019-01-19T01:28:33.286Z,8.50
2019-01-19T01:29:33.307Z,8.20
2019-01-19T01:30:33.264Z,8.20
2019-01-19T01:31:33.247Z,8.90
2019-01-19T01:32:33.238Z,8.50
2019-01-19T01:33:33.228Z,8.70
2019-01-19T01:34:33.920Z,8.80
2019-01-19T01:35:33.239Z,9.00
2019-01-19T01:36:33.199Z,9.00
2019-01-19T01:37:33.187Z,8.50
2019-01-19T01:38:33.173Z,8.90
2019-01-19T01:39:33.187Z,9.40
2019-01-19T01:40:33.148Z,8.80
2019-01-19T01:41:33.143Z,9.40
2019-01-19T01:42:33.121Z,9.80
2019-01-19T01:43:33.115Z,10.00
2019-01-19T01:44:33.104Z,11.70
2019-01-19T01:45:33.117Z,11.50
2019-01-19T01:46:33.081Z,10.90
2019-01-19T01:47:33.071Z,11.40
2019-01-19T01:48:33.059Z,10.20
2019-01-19T01:49:33.085Z,10.60
2019-01-19T01:50:33.037Z,10.60
2019-01-19T01:51:33.912Z,9.50
2019-01-19T01:52:33.018Z,10.30
2019-01-19T01:53:41.982Z,10.00
2019-01-19T01:54:41.089Z,10.30
2019-01-19T01:55:41.583Z,10.10
2019-01-19T01:56:42.600Z,9.70
2019-01-19T01:57:41.652Z,10.60
2019-01-19T01:58:32.970Z,10.30
2019-01-19T01:59:32.982Z,10.00
2019-01-19T02:00:33.618Z,10.50
2019-01-19T02:01:32.965Z,9.80
2019-01-19T02:02:32.902Z,10.40
2019-01-19T02:03:32.895Z,10.00
2019-01-19T02:04:32.884Z,10.10
2019-01-19T02:05:40.026Z,11.20
2019-01-19T02:06:33.855Z,11.00
2019-01-19T02:07:32.846Z,10.70
2019-01-19T02:08:32.833Z,11.60
2019-01-19T02:09:32.838Z,10.80
2019-01-19T02:10:32.813Z,10.80
2019-01-19T02:11:32.807Z,11.10
2019-01-19T02:12:32.793Z,11.20
2019-01-19T02:13:32.779Z,10.90
2019-01-19T02:14:32.805Z,9.80
2019-01-19T02:15:32.756Z,10.40
2019-01-19T02:16:32.747Z,10.40
2019-01-19T02:17:32.741Z,9.90
2019-01-19T02:18:32.721Z,9.60
2019-01-19T02:19:32.751Z,9.90
2019-01-19T02:20:32.703Z,10.10
2019-01-19T02:21:32.692Z,10.20
2019-01-19T02:22:32.681Z,9.90
2019-01-19T02:23:32.667Z,9.60
2019-01-19T02:24:32.656Z,10.20
2019-01-19T02:25:32.665Z,9.80
2019-01-19T02:26:32.633Z,10.00
2019-01-19T02:27:32.623Z,9.20
2019-01-19T02:28:32.611Z,9.60
2019-01-19T02:29:32.634Z,9.70
2019-01-19T02:30:32.589Z,9.60
2019-01-19T02:31:32.580Z,9.70
2019-01-19T02:32:32.570Z,9.70
2019-01-19T02:33:32.559Z,10.00
2019-01-19T02:34:32.558Z,9.30
2019-01-19T02:35:32.550Z,9.20
2019-01-19T02:36:32.527Z,9.70
2019-01-19T02:37:32.511Z,9.30
2019-01-19T02:38:32.499Z,9.40
2019-01-19T02:39:32.518Z,9.60
2019-01-19T02:40:32.477Z,9.30
2019-01-19T02:41:32.468Z,9.10
2019-01-19T02:42:32.454Z,9.80
2019-01-19T02:43:32.444Z,9.10
2019-01-19T02:44:32.432Z,9.40
2019-01-19T02:45:32.438Z,8.80
2019-01-19T02:46:32.410Z,8.80
2019-01-19T02:47:32.405Z,10.10
2019-01-19T02:48:32.417Z,9.50
2019-01-19T02:49:32.406Z,9.50
2019-01-19T02:50:32.365Z,9.50
2019-01-19T02:51:32.357Z,9.10
2019-01-19T02:52:32.344Z,10.20
2019-01-19T02:53:32.332Z,9.80
2019-01-19T02:54:32.325Z,9.80
2019-01-19T02:55:32.335Z,9.10
2019-01-19T02:56:32.300Z,9.30
2019-01-19T02:57:32.287Z,9.00
2019-01-19T02:58:32.319Z,9.00
2019-01-19T02:59:32.293Z,9.50
2019-01-19T03:00:32.253Z,9.30
2019-01-19T03:01:32.253Z,9.40
2019-01-19T03:02:32.243Z,9.40
2019-01-19T03:03:32.234Z,9.70
2019-01-19T03:04:32.210Z,9.80
2019-01-19T03:05:32.213Z,10.10
2019-01-19T03:06:32.190Z,9.50
2019-01-19T03:07:32.177Z,9.90
2019-01-19T03:08:32.162Z,10.20
2019-01-19T03:09:32.188Z,9.60
2019-01-19T03:10:32.142Z,10.10
2019-01-19T03:11:32.131Z,9.80
2019-01-19T03:12:32.121Z,9.50
2019-01-19T03:13:32.115Z,9.50
2019-01-19T03:14:32.099Z,9.70
2019-01-19T03:15:32.108Z,9.50
2019-01-19T03:16:32.075Z,10.00
2019-01-19T03:17:32.064Z,9.80
2019-01-19T03:18:32.055Z,9.30
2019-01-19T03:19:32.070Z,10.40
2019-01-19T03:20:32.039Z,9.50
2019-01-19T03:21:32.018Z,9.50
2019-01-19T03:22:32.010Z,9.50
2019-01-19T03:23:31.999Z,9.30
2019-01-19T03:24:31.985Z,9.30
2019-01-19T03:25:31.992Z,9.90
2019-01-19T03:26:31.965Z,9.90
2019-01-19T03:27:31.954Z,9.90
2019-01-19T03:28:31.941Z,9.80
2019-01-19T03:29:31.959Z,9.60
2019-01-19T03:30:31.920Z,9.50
2019-01-19T03:31:31.911Z,10.10
2019-01-19T03:32:31.896Z,9.70
2019-01-19T03:33:31.885Z,9.50
2019-01-19T03:34:31.873Z,9.20
2019-01-19T03:35:31.876Z,9.60
2019-01-19T03:36:31.849Z,9.00
2019-01-19T03:37:31.841Z,9.20
2019-01-19T03:38:31.827Z,9.10
2019-01-19T03:39:31.850Z,9.30
2019-01-19T03:40:31.813Z,9.80
2019-01-19T03:41:31.795Z,9.10
2019-01-19T03:42:31.784Z,8.90
2019-01-19T03:43:31.774Z,9.50
2019-01-19T03:44:31.763Z,9.10
2019-01-19T03:45:31.769Z,9.30
2019-01-19T03:46:31.739Z,9.20
2019-01-19T03:47:31.736Z,9.30
2019-01-19T03:48:31.718Z,9.00
2019-01-19T03:49:31.734Z,9.60
2019-01-19T03:50:31.695Z,9.50
2019-01-19T03:51:31.683Z,9.30
2019-01-19T03:52:31.672Z,9.70
2019-01-19T03:53:31.659Z,10.00
2019-01-19T03:54:32.618Z,9.70
2019-01-19T03:55:31.656Z,10.60
2019-01-19T03:56:31.628Z,10.80
2019-01-19T03:57:31.615Z,11.40
2019-01-19T03:58:31.607Z,10.10
2019-01-19T03:59:31.622Z,10.00
2019-01-19T04:00:31.584Z,10.30
2019-01-19T04:01:31.573Z,9.90
2019-01-19T04:02:31.567Z,9.90
2019-01-19T04:03:31.554Z,9.60
2019-01-19T04:04:31.541Z,10.30
2019-01-19T04:05:31.546Z,9.30
2019-01-19T04:06:31.515Z,9.10
2019-01-19T04:07:31.506Z,9.00
2019-01-19T04:08:31.495Z,9.70
2019-01-19T04:09:31.511Z,9.60
2019-01-19T04:10:31.481Z,9.30
2019-01-19T04:11:31.463Z,9.60
2019-01-19T04:12:31.453Z,9.10
2019-01-19T04:13:31.437Z,9.70
2019-01-19T04:14:31.427Z,9.30
2019-01-19T04:15:31.433Z,9.70
2019-01-19T04:16:31.404Z,9.60
2019-01-19T04:17:31.392Z,9.40
2019-01-19T04:18:31.381Z,8.90
2019-01-19T04:19:31.400Z,9.00
2019-01-19T04:20:31.364Z,9.40
2019-01-19T04:21:31.347Z,10.50
2019-01-19T04:22:31.338Z,9.60
2019-01-19T04:23:31.329Z,9.50
2019-01-19T04:24:31.315Z,9.00
2019-01-19T04:25:31.323Z,9.00
2019-01-19T04:26:31.294Z,9.00
2019-01-19T04:27:31.281Z,9.50
2019-01-19T04:28:31.270Z,9.40
2019-01-19T04:29:31.288Z,9.50
2019-01-19T04:30:31.252Z,9.50
2019-01-19T04:31:31.236Z,9.30
2019-01-19T04:32:31.225Z,9.40
2019-01-19T04:33:31.214Z,9.60
2019-01-19T04:34:31.203Z,9.60
2019-01-19T04:35:31.207Z,10.10
2019-01-19T04:36:31.181Z,9.90
2019-01-19T04:37:31.168Z,9.90
2019-01-19T04:38:31.159Z,10.20
2019-01-19T04:39:31.176Z,9.70
2019-01-19T04:40:31.137Z,9.60
2019-01-19T04:41:31.173Z,10.50
2019-01-19T04:42:31.115Z,9.80
2019-01-19T04:43:31.102Z,10.40
2019-01-19T04:44:31.095Z,10.60
2019-01-19T04:45:31.103Z,10.20
2019-01-19T04:46:31.069Z,9.80
2019-01-19T04:47:31.063Z,10.80
2019-01-19T04:48:31.051Z,10.10
2019-01-19T04:49:31.074Z,10.50
2019-01-19T04:50:31.026Z,10.80
2019-01-19T04:51:31.011Z,10.20
2019-01-19T04:52:31.005Z,10.40
2019-01-19T04:53:30.997Z,10.70
2019-01-19T04:54:30.980Z,10.20
2019-01-19T04:55:30.987Z,10.30
2019-01-19T04:56:30.959Z,11.20
2019-01-19T04:57:30.945Z,10.30
2019-01-19T04:58:30.934Z,10.60
2019-01-19T04:59:30.949Z,10.60
2019-01-19T05:00:30.912Z,10.10
2019-01-19T05:01:30.903Z,11.40
2019-01-19T05:02:30.889Z,10.80
2019-01-19T05:03:30.879Z,10.70
2019-01-19T05:04:30.867Z,10.70
2019-01-19T05:05:30.875Z,11.00
2019-01-19T05:06:30.850Z,11.10
2019-01-19T05:07:30.833Z,10.30
2019-01-19T05:08:30.825Z,10.40
2019-01-19T05:09:30.838Z,11.30
2019-01-19T05:10:30.799Z,11.00
2019-01-19T05:11:30.792Z,10.90
2019-01-19T05:12:30.780Z,10.70
2019-01-19T05:13:30.765Z,10.30
2019-01-19T05:14:30.755Z,10.50
2019-01-19T05:15:30.764Z,10.90
2019-01-19T05:16:30.735Z,10.70
2019-01-19T05:17:30.729Z,11.30
2019-01-19T05:18:30.710Z,11.30
2019-01-19T05:19:30.728Z,11.10
2019-01-19T05:20:30.688Z,11.20
2019-01-19T05:21:30.678Z,11.30
2019-01-19T05:22:30.675Z,11.00
2019-01-19T05:23:30.665Z,11.00
2019-01-19T05:24:30.648Z,11.30
2019-01-19T05:25:30.651Z,11.30
2019-01-19T05:26:30.623Z,11.60
2019-01-19T05:27:30.612Z,11.00
2019-01-19T05:28:30.607Z,11.60
2019-01-19T05:29:30.625Z,11.90
2019-01-19T05:30:30.581Z,11.70
2019-01-19T05:31:30.566Z,12.00
2019-01-19T05:32:30.556Z,11.50
2019-01-19T05:33:40.681Z,10.50
2019-01-19T05:34:38.368Z,11.50
2019-01-19T05:35:40.255Z,12.00
2019-01-19T05:36:39.285Z,11.50
2019-01-19T05:37:39.333Z,10.70
2019-01-19T05:38:30.491Z,11.60
2019-01-19T05:39:30.512Z,11.10
2019-01-19T05:40:30.468Z,11.30
2019-01-19T05:41:30.464Z,11.50
2019-01-19T05:42:30.477Z,11.80
2019-01-19T05:43:30.435Z,11.10
2019-01-19T05:44:30.436Z,11.80
2019-01-19T05:45:30.830Z,11.90
2019-01-19T05:46:30.402Z,11.30
2019-01-19T05:47:30.390Z,11.70
2019-01-19T05:48:30.380Z,11.60
2019-01-19T05:49:30.397Z,11.50
2019-01-19T05:50:30.360Z,11.20
2019-01-19T05:51:30.344Z,11.30
2019-01-19T05:52:30.340Z,11.50
2019-01-19T05:53:30.323Z,12.00
2019-01-19T05:54:30.310Z,10.70
2019-01-19T05:55:30.323Z,11.80
2019-01-19T05:56:30.290Z,12.10
2019-01-19T05:57:30.282Z,11.60
2019-01-19T05:58:30.273Z,12.00
2019-01-19T05:59:30.342Z,11.90
2019-01-19T06:00:30.243Z,11.70
2019-01-19T06:01:30.236Z,11.40
2019-01-19T06:02:30.226Z,11.50
2019-01-19T06:03:30.210Z,11.50
2019-01-19T06:04:30.203Z,11.40
2019-01-19T06:05:30.205Z,12.00
2019-01-19T06:06:30.176Z,11.50
2019-01-19T06:07:30.168Z,11.30
2019-01-19T06:08:30.827Z,12.00
2019-01-19T06:09:30.183Z,11.60
2019-01-19T06:10:30.137Z,11.70
2019-01-19T06:11:30.120Z,12.10
2019-01-19T06:12:30.117Z,11.60
2019-01-19T06:13:30.110Z,11.80
2019-01-19T06:14:30.097Z,12.40
2019-01-19T06:15:30.101Z,12.40
2019-01-19T06:16:30.064Z,12.00
2019-01-19T06:17:30.061Z,11.90
2019-01-19T06:18:30.047Z,12.60
2019-01-19T06:19:30.061Z,12.20
2019-01-19T06:20:30.020Z,12.30
2019-01-19T06:21:30.014Z,12.50
2019-01-19T06:22:30.000Z,12.70
2019-01-19T06:23:29.993Z,12.10
2019-01-19T06:24:29.984Z,12.40
2019-01-19T06:25:29.982Z,12.40
2019-01-19T06:26:29.956Z,12.70
2019-01-19T06:27:29.943Z,12.30
2019-01-19T06:28:29.936Z,12.60
2019-01-19T06:29:29.950Z,12.40
2019-01-19T06:30:29.909Z,12.10
2019-01-19T06:31:29.899Z,12.20
2019-01-19T06:32:29.893Z,12.10
2019-01-19T06:33:29.881Z,12.10
2019-01-19T06:34:29.868Z,12.10
2019-01-19T06:35:29.876Z,12.20
2019-01-19T06:36:29.844Z,12.60
2019-01-19T06:37:29.834Z,12.50
2019-01-19T06:38:29.829Z,12.50
2019-01-19T06:39:29.842Z,12.40
2019-01-19T06:40:29.800Z,12.40
2019-01-19T06:41:29.791Z,13.10
2019-01-19T06:42:29.777Z,13.20
2019-01-19T06:43:29.767Z,12.30
2019-01-19T06:44:29.756Z,12.40
2019-01-19T06:45:29.763Z,13.40
2019-01-19T06:46:29.735Z,12.70
2019-01-19T06:47:29.720Z,13.10
2019-01-19T06:48:29.717Z,12.90
2019-01-19T06:49:29.732Z,13.20
2019-01-19T06:50:29.693Z,12.40
2019-01-19T06:51:29.679Z,13.10
2019-01-19T06:52:29.668Z,12.80
2019-01-19T06:53:29.657Z,13.10
2019-01-19T06:54:29.649Z,13.50
2019-01-19T06:55:29.656Z,12.50
2019-01-19T06:56:29.621Z,13.40
2019-01-19T06:57:29.612Z,14.20
2019-01-19T06:58:29.782Z,13.80
2019-01-19T06:59:29.618Z,14.40
2019-01-19T07:00:29.579Z,15.00
2019-01-19T07:01:29.568Z,14.40
2019-01-19T07:02:29.602Z,14.30
2019-01-19T07:03:29.557Z,15.00
2019-01-19T07:04:29.535Z,14.80
2019-01-19T07:05:29.541Z,14.80
2019-01-19T07:06:29.513Z,15.30
2019-01-19T07:07:29.506Z,16.10
2019-01-19T07:08:29.492Z,16.30
2019-01-19T07:09:30.325Z,16.70
2019-01-19T07:10:29.466Z,17.40
2019-01-19T07:11:29.456Z,16.80
2019-01-19T07:12:29.446Z,17.70
2019-01-19T07:13:29.440Z,17.70
2019-01-19T07:14:29.426Z,18.00
2019-01-19T07:15:29.438Z,17.10
2019-01-19T07:16:29.406Z,17.30
2019-01-19T07:17:30.330Z,18.00
2019-01-19T07:18:29.387Z,18.20
2019-01-19T07:19:38.337Z,17.80
2019-01-19T07:20:38.935Z,17.10
2019-01-19T07:21:39.100Z,16.60
2019-01-19T07:22:39.020Z,17.20
2019-01-19T07:23:29.346Z,16.00
2019-01-19T07:24:38.053Z,16.20
2019-01-19T07:25:37.265Z,15.30
2019-01-19T07:26:37.620Z,14.20
2019-01-19T07:27:29.284Z,14.20
2019-01-19T07:28:29.279Z,14.00
2019-01-19T07:29:29.268Z,13.90
2019-01-19T07:30:29.268Z,13.50
2019-01-19T07:31:29.238Z,13.60
2019-01-19T07:32:29.227Z,12.90
2019-01-19T07:33:29.215Z,14.00
2019-01-19T07:34:29.205Z,12.90
2019-01-19T07:35:29.218Z,12.70
2019-01-19T07:36:29.188Z,13.60
2019-01-19T07:37:29.218Z,13.20
2019-01-19T07:38:29.161Z,13.80
2019-01-19T07:39:29.150Z,13.30
2019-01-19T07:40:29.154Z,13.90
2019-01-19T07:41:29.130Z,13.50
2019-01-19T07:42:29.122Z,13.30
2019-01-19T07:43:29.106Z,12.80
2019-01-19T07:44:29.098Z,13.00
2019-01-19T07:45:29.100Z,13.50
2019-01-19T07:46:29.073Z,13.10
2019-01-19T07:47:29.061Z,12.30
2019-01-19T07:48:29.052Z,12.70
2019-01-19T07:49:29.042Z,12.80
2019-01-19T07:50:29.051Z,13.10
2019-01-19T07:51:29.018Z,12.40
2019-01-19T07:52:29.007Z,12.30
2019-01-19T07:53:28.994Z,12.80
2019-01-19T07:54:28.983Z,12.30
2019-01-19T07:55:28.994Z,12.40
2019-01-19T07:56:28.961Z,12.40
2019-01-19T07:57:31.339Z,12.70
2019-01-19T07:58:28.945Z,12.00
2019-01-19T07:59:28.934Z,12.50
2019-01-19T08:00:28.937Z,12.00
2019-01-19T08:01:28.906Z,12.30
2019-01-19T08:02:28.894Z,13.20
2019-01-19T08:03:28.884Z,13.20
2019-01-19T08:04:28.877Z,13.20
2019-01-19T08:05:28.882Z,12.30
2019-01-19T08:06:28.851Z,11.90
2019-01-19T08:07:28.854Z,12.50
2019-01-19T08:08:28.829Z,12.90
2019-01-19T08:09:28.820Z,13.00
2019-01-19T08:10:28.826Z,11.90
2019-01-19T08:11:29.608Z,12.40
2019-01-19T08:12:29.783Z,11.60
2019-01-19T08:13:28.775Z,11.50
2019-01-19T08:14:28.765Z,11.80
2019-01-19T08:15:29.529Z,11.40
2019-01-19T08:16:28.743Z,11.90
2019-01-19T08:17:28.735Z,12.00
2019-01-19T08:18:28.723Z,11.60
2019-01-19T08:19:28.708Z,11.40
2019-01-19T08:20:28.716Z,12.50
2019-01-19T08:21:28.684Z,12.00
2019-01-19T08:22:28.674Z,12.30
2019-01-19T08:23:28.664Z,11.10
2019-01-19T08:24:28.654Z,11.20
2019-01-19T08:25:28.661Z,11.20
2019-01-19T08:26:28.632Z,11.50
2019-01-19T08:27:28.618Z,11.30
2019-01-19T08:28:28.610Z,11.50
2019-01-19T08:29:28.598Z,11.00
2019-01-19T08:30:28.601Z,11.40
2019-01-19T08:31:28.573Z,11.40
2019-01-19T08:32:28.563Z,11.90
2019-01-19T08:33:28.556Z,11.30
2019-01-19T08:34:28.544Z,12.00
2019-01-19T08:35:28.546Z,12.20
2019-01-19T08:36:28.520Z,11.30
2019-01-19T08:37:28.509Z,12.40
2019-01-19T08:38:28.497Z,12.10
2019-01-19T08:39:28.491Z,12.00
2019-01-19T08:40:28.498Z,11.40
2019-01-19T08:41:28.470Z,11.50
2019-01-19T08:42:28.451Z,10.90
2019-01-19T08:43:28.441Z,11.10
2019-01-19T08:44:28.429Z,11.40
2019-01-19T08:45:28.438Z,11.00
2019-01-19T08:46:28.408Z,11.30
2019-01-19T08:47:28.397Z,11.30
2019-01-19T08:48:28.389Z,11.20
2019-01-19T08:49:28.377Z,11.00
2019-01-19T08:50:28.379Z,11.00
2019-01-19T08:51:28.351Z,11.00
2019-01-19T08:52:28.339Z,11.10
2019-01-19T08:53:28.329Z,10.50
2019-01-19T08:54:28.317Z,10.50
2019-01-19T08:55:28.342Z,10.40
2019-01-19T08:56:28.299Z,10.60
2019-01-19T08:57:28.286Z,10.00
2019-01-19T08:58:28.273Z,10.80
2019-01-19T08:59:28.265Z,9.90
2019-01-19T09:00:28.271Z,10.40
2019-01-19T09:01:28.246Z,10.40
2019-01-19T09:02:28.230Z,10.30
2019-01-19T09:03:28.218Z,10.80
2019-01-19T09:04:28.207Z,11.10
2019-01-19T09:05:28.216Z,10.70
2019-01-19T09:06:28.183Z,12.10
2019-01-19T09:07:33.668Z,11.60
2019-01-19T09:08:29.162Z,11.60
2019-01-19T09:09:28.151Z,11.40
2019-01-19T09:10:28.164Z,11.90
2019-01-19T09:11:28.127Z,11.20
2019-01-19T09:12:28.116Z,12.00
2019-01-19T09:13:28.105Z,11.80
2019-01-19T09:14:28.100Z,12.50
2019-01-19T09:15:28.116Z,12.70
2019-01-19T09:16:28.081Z,12.30
2019-01-19T09:17:28.067Z,13.00
2019-01-19T09:18:28.050Z,11.20
2019-01-19T09:19:28.039Z,11.80
2019-01-19T09:20:28.044Z,11.90
2019-01-19T09:21:28.016Z,11.20
2019-01-19T09:22:28.004Z,11.60
2019-01-19T09:23:27.993Z,11.60
2019-01-19T09:24:27.981Z,10.40
2019-01-19T09:25:27.987Z,10.70
2019-01-19T09:26:27.959Z,11.10
2019-01-19T09:27:27.951Z,10.80
2019-01-19T09:28:27.945Z,10.50
2019-01-19T09:29:27.927Z,11.10
2019-01-19T09:30:27.937Z,10.30
2019-01-19T09:31:27.902Z,10.80
2019-01-19T09:32:27.894Z,10.30
2019-01-19T09:33:27.880Z,10.20
2019-01-19T09:34:27.871Z,10.20
2019-01-19T09:35:27.878Z,9.90
2019-01-19T09:36:27.848Z,9.60
2019-01-19T09:37:27.838Z,9.70
2019-01-19T09:38:27.825Z,10.10
2019-01-19T09:39:27.814Z,9.60
2019-01-19T09:40:27.820Z,9.30
2019-01-19T09:41:27.791Z,9.90
2019-01-19T09:42:27.781Z,9.40
2019-01-19T09:43:27.769Z,9.90
2019-01-19T09:44:27.765Z,9.30
2019-01-19T09:45:27.768Z,11.80
2019-01-19T09:46:27.736Z,9.90
2019-01-19T09:47:27.727Z,9.90
2019-01-19T09:48:27.714Z,11.20
2019-01-19T09:49:27.703Z,11.70
2019-01-19T09:50:27.713Z,10.80
2019-01-19T09:51:27.683Z,9.40
2019-01-19T09:52:27.671Z,9.10
2019-01-19T09:53:27.660Z,8.70
2019-01-19T09:54:27.646Z,8.30
2019-01-19T09:55:27.653Z,8.70
2019-01-19T09:56:27.625Z,8.40
2019-01-19T09:57:27.614Z,8.60
2019-01-19T09:58:27.602Z,8.20
2019-01-19T09:59:27.593Z,7.90
2019-01-19T10:00:27.603Z,8.10
2019-01-19T10:01:27.568Z,7.80
2019-01-19T10:02:27.554Z,8.10
2019-01-19T10:03:27.546Z,7.80
2019-01-19T10:04:27.537Z,8.30
2019-01-19T10:05:27.543Z,8.10
2019-01-19T10:06:27.514Z,8.10
2019-01-19T10:07:27.500Z,8.00
2019-01-19T10:08:27.491Z,8.30
2019-01-19T10:09:27.478Z,7.30
2019-01-19T10:10:27.490Z,7.30
2019-01-19T10:11:27.471Z,7.00
2019-01-19T10:12:27.446Z,7.10
2019-01-19T10:13:27.441Z,7.50
2019-01-19T10:14:27.422Z,7.20
2019-01-19T10:15:27.436Z,8.30
2019-01-19T10:16:27.402Z,8.00
2019-01-19T10:17:27.395Z,7.50
2019-01-19T10:18:27.379Z,7.60
2019-01-19T10:19:27.369Z,7.30
2019-01-19T10:20:27.376Z,7.40
2019-01-19T10:21:27.343Z,7.00
2019-01-19T10:22:27.337Z,6.60
2019-01-19T10:23:27.324Z,7.20
2019-01-19T10:24:27.310Z,7.70
2019-01-19T10:25:27.333Z,7.30
2019-01-19T10:26:27.290Z,7.70
2019-01-19T10:27:27.281Z,7.10
2019-01-19T10:28:27.265Z,7.60
2019-01-19T10:29:27.255Z,7.30
2019-01-19T10:30:27.260Z,7.00
2019-01-19T10:31:27.232Z,7.20
2019-01-19T10:32:27.224Z,6.90
2019-01-19T10:33:27.213Z,7.20
2019-01-19T10:34:27.211Z,7.00
2019-01-19T10:35:27.205Z,7.30
2019-01-19T10:36:27.178Z,6.70
2019-01-19T10:37:27.165Z,6.50
2019-01-19T10:38:27.154Z,5.90
2019-01-19T10:39:27.152Z,5.70
2019-01-19T10:40:27.151Z,5.40
2019-01-19T10:41:27.121Z,5.50
2019-01-19T10:42:27.111Z,5.00
2019-01-19T10:43:27.103Z,4.80
2019-01-19T10:44:27.088Z,4.90
2019-01-19T10:45:27.102Z,5.00
2019-01-19T10:46:27.071Z,5.30
2019-01-19T10:47:27.054Z,4.90
2019-01-19T10:48:27.043Z,5.10
2019-01-19T10:49:27.039Z,4.70
2019-01-19T10:50:27.040Z,5.50
2019-01-19T10:51:27.015Z,5.20
2019-01-19T10:52:26.997Z,5.50
2019-01-19T10:53:26.989Z,5.10
2019-01-19T10:54:26.976Z,5.10
2019-01-19T10:55:27.006Z,5.60
2019-01-19T10:56:26.953Z,5.30
2019-01-19T10:57:26.942Z,5.20
2019-01-19T10:58:26.932Z,5.30
2019-01-19T10:59:26.920Z,5.90
2019-01-19T11:00:26.931Z,5.30
2019-01-19T11:01:26.898Z,5.80
2019-01-19T11:02:26.889Z,5.80
2019-01-19T11:03:26.876Z,5.90
2019-01-19T11:04:26.867Z,6.30
2019-01-19T11:05:26.872Z,5.80
2019-01-19T11:06:26.842Z,5.90
2019-01-19T11:07:26.833Z,5.60
2019-01-19T11:08:26.823Z,6.00
2019-01-19T11:09:26.809Z,6.10
2019-01-19T11:10:26.817Z,5.90
2019-01-19T11:11:26.787Z,5.80
2019-01-19T11:12:26.777Z,5.90
2019-01-19T11:13:26.767Z,5.60
2019-01-19T11:14:26.761Z,5.50
2019-01-19T11:15:26.759Z,6.40
2019-01-19T11:16:26.731Z,5.90
2019-01-19T11:17:26.722Z,5.80
2019-01-19T11:18:26.709Z,5.80
2019-01-19T11:19:26.703Z,5.70
2019-01-19T11:20:26.706Z,5.40
2019-01-19T11:21:26.675Z,5.50
2019-01-19T11:22:26.674Z,4.70
2019-01-19T11:23:26.656Z,4.90
2019-01-19T11:24:26.643Z,4.90
2019-01-19T11:25:26.648Z,4.40
2019-01-19T11:26:26.619Z,5.80
2019-01-19T11:27:26.609Z,5.00
2019-01-19T11:28:26.612Z,4.70
2019-01-19T11:29:26.583Z,5.40
2019-01-19T11:30:26.597Z,4.80
2019-01-19T11:31:26.575Z,5.00
2019-01-19T11:32:26.552Z,4.90
2019-01-19T11:33:26.542Z,5.30
2019-01-19T11:34:26.533Z,5.60
2019-01-19T11:35:26.538Z,5.30
2019-01-19T11:36:27.508Z,5.40
2019-01-19T11:37:26.497Z,5.80
2019-01-19T11:38:26.493Z,5.40
2019-01-19T11:39:26.478Z,5.10
2019-01-19T11:40:26.509Z,5.10
2019-01-19T11:41:26.452Z,6.00
2019-01-19T11:42:26.458Z,5.20
2019-01-19T11:43:26.430Z,5.10
2019-01-19T11:44:26.419Z,5.40
2019-01-19T11:45:26.440Z,5.00
2019-01-19T11:46:26.396Z,4.80
2019-01-19T11:47:26.400Z,5.00
2019-01-19T11:48:26.376Z,4.80
2019-01-19T11:49:26.366Z,4.80
2019-01-19T11:50:26.377Z,5.30
2019-01-19T11:51:26.355Z,4.90
2019-01-19T11:52:26.331Z,5.20
2019-01-19T11:53:26.318Z,5.20
2019-01-19T11:54:26.312Z,5.70
2019-01-19T11:55:26.316Z,5.30
2019-01-19T11:56:26.287Z,5.10
2019-01-19T11:57:26.277Z,5.00
2019-01-19T11:58:26.263Z,5.10
2019-01-19T11:59:26.258Z,4.90
2019-01-19T12:00:26.263Z,5.00
2019-01-19T12:01:26.233Z,4.80
2019-01-19T12:02:26.239Z,4.80
2019-01-19T12:03:26.207Z,4.10
2019-01-19T12:04:26.200Z,4.40
2019-01-19T12:05:26.212Z,4.60
2019-01-19T12:06:26.174Z,4.30
2019-01-19T12:07:26.164Z,4.20
2019-01-19T12:08:26.152Z,4.40
2019-01-19T12:09:26.142Z,4.10
2019-01-19T12:10:26.146Z,3.60
2019-01-19T12:11:26.124Z,4.10
2019-01-19T12:12:26.109Z,4.20
2019-01-19T12:13:26.098Z,4.20
2019-01-19T12:14:26.087Z,4.60
2019-01-19T12:15:26.093Z,4.70
2019-01-19T12:16:26.065Z,4.30
2019-01-19T12:17:26.054Z,4.50
2019-01-19T12:18:26.042Z,4.30
2019-01-19T12:19:26.030Z,4.40
2019-01-19T12:20:26.042Z,4.20
2019-01-19T12:21:35.683Z,4.30
2019-01-19T12:22:26.007Z,4.00
2019-01-19T12:23:26.007Z,4.30
2019-01-19T12:24:25.975Z,4.30
2019-01-19T12:25:25.986Z,4.50
2019-01-19T12:26:25.958Z,3.80
2019-01-19T12:27:25.955Z,3.80
2019-01-19T12:28:25.930Z,4.10
2019-01-19T12:29:25.927Z,4.00
2019-01-19T12:30:25.927Z,4.00
2019-01-19T12:31:25.896Z,4.40
2019-01-19T12:32:25.890Z,4.30
2019-01-19T12:33:25.877Z,4.50
2019-01-19T12:34:25.869Z,4.40
2019-01-19T12:35:25.867Z,4.40
2019-01-19T12:36:25.841Z,4.30
2019-01-19T12:37:25.877Z,4.20
2019-01-19T12:38:26.889Z,4.00
2019-01-19T12:39:25.811Z,4.30
2019-01-19T12:40:25.820Z,4.30
2019-01-19T12:41:25.788Z,4.80
2019-01-19T12:42:25.778Z,4.90
2019-01-19T12:43:25.767Z,4.60
2019-01-19T12:44:25.752Z,4.80
2019-01-19T12:45:25.778Z,4.40
2019-01-19T12:46:25.736Z,4.80
2019-01-19T12:47:25.738Z,5.10
2019-01-19T12:48:25.706Z,5.20
2019-01-19T12:49:25.697Z,4.90
2019-01-19T12:50:25.701Z,5.10
2019-01-19T12:51:25.677Z,4.70
2019-01-19T12:52:25.680Z,4.90
2019-01-19T12:53:25.650Z,4.60
2019-01-19T12:54:25.640Z,4.50
2019-01-19T12:55:25.646Z,4.10
2019-01-19T12:56:34.763Z,4.40
2019-01-19T12:57:35.303Z,4.30
2019-01-19T12:58:37.315Z,4.70
2019-01-19T12:59:35.374Z,4.30
2019-01-19T13:00:33.504Z,4.50
2019-01-19T13:01:33.936Z,4.60
2019-01-19T13:02:36.030Z,5.00
2019-01-19T13:03:35.095Z,4.40
2019-01-19T13:04:35.089Z,4.50
2019-01-19T13:05:25.599Z,4.50
2019-01-19T13:06:25.528Z,4.10